Snow/Ice From: 16-12-2017 16:00 Until: 17-12-2017 16:00 warning for: Snow/Ice Level: Yellow info button

Although rather usual in this region, locally or potentially dangerous phenomena are expected. (such as local winds, summer thunderstorms, rising streams or high waves) Be aware and pay attention to the latest weather updates, especially if you carry out activities exposed to weather or close to a stream or shoreline. 


Meteo18 Weather Cam more information Meteo18 Weather Cam


Thunder radar more information blitzortung!


warning for Snow/Ice more information rain snow radar


Visit our other weather sites:

Template documentation
and downloads

And another site



Weather Underground History page Text

Daily Summary for October 8, 2017 Units:  Both    English   Metric
« Previous Day
Next Day »
Daily Weekly Monthly Yearly Custom
  High: Low: Average:
Temperature: 60.4 °F /  15.8 °C 49.8 °F /  9.9 °C 54.7 °F /  12.6 °C
Dew Point: 55.9 °F /  13.3 °C 47.1 °F /  8.4 °C 52 °F /  11.1 °C
Humidity: 96 % 81 % 91 %
Wind Speed: 10 mph /  16.1 km/h - 2 mph /  3.2 km/h
Wind Gust: 12 mph /  19.3 km/h - -
Wind:- - WSW
Pressure: 30.2 in /  1022.9 hPa 30.1 in /  1020.5 hPa -
Precipitation: 0.2 in /  5.1 mm    
Historical Graphs
 
 
Tabular Data for October 8, 2017
Time Temperature Dew Point Pressure Wind Wind Speed Wind Gust Humidity Rainfall Rate (Hourly)
00:02 52.7 °F /  11.5 °C 47.1 °F /  8.4 °C 30.2 in /  1022.2 hPa WNW 2 mph /  3.2 km/h 5 mph /  8.0 km/h 81 % 0.03 in /  0.8 mm
00:12 52.3 °F /  11.3 °C 47.3 °F /  8.5 °C 30.2 in /  1021.9 hPa Calm   5 mph /  8.0 km/h 83 % 0.05 in /  1.3 mm
00:17 52.2 °F /  11.2 °C 47.5 °F /  8.6 °C 30.2 in /  1021.9 hPa SW 1 mph /  1.6 km/h 5 mph /  8.0 km/h 84 % 0.06 in /  1.5 mm
00:22 52.2 °F /  11.2 °C 47.8 °F /  8.8 °C 30.2 in /  1021.9 hPa WSW 1 mph /  1.6 km/h 3 mph /  4.8 km/h 85 % 0.06 in /  1.5 mm
00:32 51.6 °F /  10.9 °C 47.8 °F /  8.8 °C 30.2 in /  1022.2 hPa Calm   1 mph /  1.6 km/h 87 % 0.08 in /  2.0 mm
00:42 51.4 °F /  10.8 °C 48 °F /  8.9 °C 30.2 in /  1021.9 hPa Calm     88 % 0.09 in /  2.3 mm
00:47 51.4 °F /  10.8 °C 48 °F /  8.9 °C 30.2 in /  1021.9 hPa Calm   1 mph /  1.6 km/h 88 % 0.09 in /  2.3 mm
00:52 51.3 °F /  10.7 °C 48.2 °F /  9.0 °C 30.2 in /  1021.9 hPa Calm   1 mph /  1.6 km/h 89 % 0.07 in /  1.8 mm
01:02 51.3 °F /  10.7 °C 48.4 °F /  9.1 °C 30.2 in /  1021.9 hPa Calm     90 % 0.06 in /  1.5 mm
01:07 51.1 °F /  10.6 °C 48.2 °F /  9.0 °C 30.2 in /  1021.9 hPa Calm     90 % 0.06 in /  1.5 mm
01:12 51.1 °F /  10.6 °C 48.6 °F /  9.2 °C 30.2 in /  1021.9 hPa Calm     91 % 0.05 in /  1.3 mm
01:17 51.1 °F /  10.6 °C 48.6 °F /  9.2 °C 30.2 in /  1021.6 hPa Calm   1 mph /  1.6 km/h 91 % 0.04 in /  1.0 mm
01:22 50.9 °F /  10.5 °C 48.7 °F /  9.3 °C 30.2 in /  1021.9 hPa SW 1 mph /  1.6 km/h 2 mph /  3.2 km/h 92 % 0.04 in /  1.0 mm
01:27 50.7 °F /  10.4 °C 48.6 °F /  9.2 °C 30.2 in /  1021.6 hPa SW 1 mph /  1.6 km/h 2 mph /  3.2 km/h 92 % 0.03 in /  0.8 mm
01:32 50.7 °F /  10.4 °C 48.6 °F /  9.2 °C 30.2 in /  1021.6 hPa SW 2 mph /  3.2 km/h 3 mph /  4.8 km/h 92 % 0.02 in /  0.5 mm
01:37 50.7 °F /  10.4 °C 48.6 °F /  9.2 °C 30.2 in /  1021.6 hPa SW 1 mph /  1.6 km/h 5 mph /  8.0 km/h 92 % 0.02 in /  0.5 mm
01:42 50.9 °F /  10.5 °C 48.9 °F /  9.4 °C 30.2 in /  1021.6 hPa WSW 4 mph /  6.4 km/h 5 mph /  8.0 km/h 93 % 0.02 in /  0.5 mm
01:47 50.9 °F /  10.5 °C 48.9 °F /  9.4 °C 30.2 in /  1021.6 hPa SSW 5 mph /  8.0 km/h 6 mph /  9.7 km/h 93 % 0.02 in /  0.5 mm
01:52 50.7 °F /  10.4 °C 48.7 °F /  9.3 °C 30.2 in /  1021.6 hPa WSW 4 mph /  6.4 km/h 7 mph /  11.3 km/h 93 % 0.02 in /  0.5 mm
01:57 50.7 °F /  10.4 °C 48.7 °F /  9.3 °C 30.2 in /  1021.6 hPa WSW 7 mph /  11.3 km/h 7 mph /  11.3 km/h 93 % 0.02 in /  0.5 mm
02:02 50.9 °F /  10.5 °C 48.9 °F /  9.4 °C 30.2 in /  1021.6 hPa SW 2 mph /  3.2 km/h 10 mph /  16.1 km/h 93 % 0.02 in /  0.5 mm
02:07 50.9 °F /  10.5 °C 48.9 °F /  9.4 °C 30.2 in /  1021.6 hPa WNW 5 mph /  8.0 km/h 10 mph /  16.1 km/h 93 % 0.02 in /  0.5 mm
02:12 50.9 °F /  10.5 °C 48.9 °F /  9.4 °C 30.2 in /  1021.6 hPa SW 4 mph /  6.4 km/h 10 mph /  16.1 km/h 93 % 0.03 in /  0.8 mm
02:17 50.7 °F /  10.4 °C 48.7 °F /  9.3 °C 30.2 in /  1021.6 hPa West 3 mph /  4.8 km/h 10 mph /  16.1 km/h 93 % 0.04 in /  1.0 mm
02:22 50.7 °F /  10.4 °C 48.7 °F /  9.3 °C 30.2 in /  1021.2 hPa WSW 3 mph /  4.8 km/h 9 mph /  14.5 km/h 93 % 0.05 in /  1.3 mm
02:27 50.5 °F /  10.3 °C 48.6 °F /  9.2 °C 30.2 in /  1021.6 hPa WSW 6 mph /  9.7 km/h 9 mph /  14.5 km/h 93 % 0.05 in /  1.3 mm
02:32 50.5 °F /  10.3 °C 48.6 °F /  9.2 °C 30.2 in /  1021.2 hPa West 3 mph /  4.8 km/h 11 mph /  17.7 km/h 93 % 0.05 in /  1.3 mm
02:37 50.5 °F /  10.3 °C 48.6 °F /  9.2 °C 30.2 in /  1021.6 hPa WSW 4 mph /  6.4 km/h 11 mph /  17.7 km/h 93 % 0.05 in /  1.3 mm
02:42 50.4 °F /  10.2 °C 48.2 °F /  9.0 °C 30.2 in /  1021.6 hPa WSW 3 mph /  4.8 km/h 11 mph /  17.7 km/h 92 % 0.05 in /  1.3 mm
02:47 50.4 °F /  10.2 °C 48.2 °F /  9.0 °C 30.2 in /  1021.6 hPa WSW 2 mph /  3.2 km/h 8 mph /  12.9 km/h 92 % 0.05 in /  1.3 mm
02:52 50.4 °F /  10.2 °C 48.2 °F /  9.0 °C 30.2 in /  1021.2 hPa SW 4 mph /  6.4 km/h 8 mph /  12.9 km/h 92 % 0.05 in /  1.3 mm
02:57 50.2 °F /  10.1 °C 48 °F /  8.9 °C 30.2 in /  1021.2 hPa West 4 mph /  6.4 km/h 8 mph /  12.9 km/h 92 % 0.04 in /  1.0 mm
03:02 50.2 °F /  10.1 °C 48 °F /  8.9 °C 30.2 in /  1021.2 hPa SSW 1 mph /  1.6 km/h 8 mph /  12.9 km/h 92 % 0.03 in /  0.8 mm
03:07 50 °F /  10.0 °C 48 °F /  8.9 °C 30.2 in /  1021.2 hPa SW 3 mph /  4.8 km/h 8 mph /  12.9 km/h 93 % 0.03 in /  0.8 mm
03:12 50 °F /  10.0 °C 48 °F /  8.9 °C 30.2 in /  1021.2 hPa Calm   6 mph /  9.7 km/h 93 % 0.03 in /  0.8 mm
03:17 49.8 °F /  9.9 °C 47.8 °F /  8.8 °C 30.2 in /  1021.2 hPa Calm   5 mph /  8.0 km/h 93 % 0.02 in /  0.5 mm
03:22 49.8 °F /  9.9 °C 47.8 °F /  8.8 °C 30.2 in /  1021.2 hPa West 3 mph /  4.8 km/h 9 mph /  14.5 km/h 93 % 0.02 in /  0.5 mm
03:27 49.8 °F /  9.9 °C 47.8 °F /  8.8 °C 30.2 in /  1021.2 hPa WSW 7 mph /  11.3 km/h 9 mph /  14.5 km/h 93 % 0.02 in /  0.5 mm
03:32 49.8 °F /  9.9 °C 47.8 °F /  8.8 °C 30.2 in /  1021.2 hPa SW 2 mph /  3.2 km/h 10 mph /  16.1 km/h 93 % 0.02 in /  0.5 mm
03:37 49.8 °F /  9.9 °C 47.8 °F /  8.8 °C 30.2 in /  1020.9 hPa WNW 6 mph /  9.7 km/h 10 mph /  16.1 km/h 93 % 0.02 in /  0.5 mm
03:42 49.8 °F /  9.9 °C 47.8 °F /  8.8 °C 30.2 in /  1020.9 hPa WSW 9 mph /  14.5 km/h 10 mph /  16.1 km/h 93 % 0.02 in /  0.5 mm
03:47 49.8 °F /  9.9 °C 47.8 °F /  8.8 °C 30.2 in /  1020.9 hPa WNW 4 mph /  6.4 km/h 12 mph /  19.3 km/h 93 % 0.03 in /  0.8 mm
03:52 49.8 °F /  9.9 °C 48.2 °F /  9.0 °C 30.2 in /  1020.9 hPa WSW 10 mph /  16.1 km/h 12 mph /  19.3 km/h 94 % 0.04 in /  1.0 mm
03:57 49.8 °F /  9.9 °C 48.2 °F /  9.0 °C 30.2 in /  1020.9 hPa WSW 7 mph /  11.3 km/h 12 mph /  19.3 km/h 94 % 0.04 in /  1.0 mm
04:02 49.8 °F /  9.9 °C 48.2 °F /  9.0 °C 30.2 in /  1020.9 hPa WSW 3 mph /  4.8 km/h 10 mph /  16.1 km/h 94 % 0.06 in /  1.5 mm
04:07 49.8 °F /  9.9 °C 48.2 °F /  9.0 °C 30.2 in /  1020.9 hPa WSW 5 mph /  8.0 km/h 10 mph /  16.1 km/h 94 % 0.06 in /  1.5 mm
04:12 49.8 °F /  9.9 °C 48.2 °F /  9.0 °C 30.2 in /  1020.9 hPa WSW 2 mph /  3.2 km/h 9 mph /  14.5 km/h 94 % 0.06 in /  1.5 mm
04:17 49.8 °F /  9.9 °C 48.2 °F /  9.0 °C 30.2 in /  1020.9 hPa SSW 2 mph /  3.2 km/h 9 mph /  14.5 km/h 94 % 0.06 in /  1.5 mm
04:22 49.8 °F /  9.9 °C 48.2 °F /  9.0 °C 30.2 in /  1020.9 hPa WSW 7 mph /  11.3 km/h 9 mph /  14.5 km/h 94 % 0.06 in /  1.5 mm
04:37 49.8 °F /  9.9 °C 48.4 °F /  9.1 °C 30.1 in /  1020.5 hPa West 2 mph /  3.2 km/h 9 mph /  14.5 km/h 95 % 0.06 in /  1.5 mm
04:42 49.8 °F /  9.9 °C 48.4 °F /  9.1 °C 30.2 in /  1020.9 hPa SW 2 mph /  3.2 km/h 8 mph /  12.9 km/h 95 % 0.06 in /  1.5 mm
04:47 49.8 °F /  9.9 °C 48.4 °F /  9.1 °C 30.2 in /  1020.9 hPa SW 4 mph /  6.4 km/h 8 mph /  12.9 km/h 95 % 0.06 in /  1.5 mm
04:52 49.8 °F /  9.9 °C 48.4 °F /  9.1 °C 30.2 in /  1020.9 hPa WSW 5 mph /  8.0 km/h 8 mph /  12.9 km/h 95 % 0.05 in /  1.3 mm
05:02 50 °F /  10.0 °C 48.6 °F /  9.2 °C 30.2 in /  1020.9 hPa SW 2 mph /  3.2 km/h 7 mph /  11.3 km/h 95 % 0.02 in /  0.5 mm
05:07 50 °F /  10.0 °C 48.6 °F /  9.2 °C 30.2 in /  1020.9 hPa West 4 mph /  6.4 km/h 6 mph /  9.7 km/h 95 % 0.02 in /  0.5 mm
05:12 50 °F /  10.0 °C 48.6 °F /  9.2 °C 30.2 in /  1020.9 hPa West 2 mph /  3.2 km/h 6 mph /  9.7 km/h 95 % 0.02 in /  0.5 mm
05:27 50 °F /  10.0 °C 48.6 °F /  9.2 °C 30.2 in /  1020.9 hPa WSW 1 mph /  1.6 km/h 7 mph /  11.3 km/h 95 % 0.01 in /  0.3 mm
05:37 50 °F /  10.0 °C 48.9 °F /  9.4 °C 30.2 in /  1020.9 hPa WSW 4 mph /  6.4 km/h 5 mph /  8.0 km/h 96 % 0 in /  0.0 mm
05:42 50 °F /  10.0 °C 48.9 °F /  9.4 °C 30.2 in /  1020.9 hPa SW 4 mph /  6.4 km/h 5 mph /  8.0 km/h 96 % 0 in /  0.0 mm
05:47 50 °F /  10.0 °C 48.9 °F /  9.4 °C 30.2 in /  1020.9 hPa SSW 2 mph /  3.2 km/h 6 mph /  9.7 km/h 96 % 0 in /  0.0 mm
05:52 50 °F /  10.0 °C 48.9 °F /  9.4 °C 30.2 in /  1020.9 hPa West 3 mph /  4.8 km/h 6 mph /  9.7 km/h 96 % 0 in /  0.0 mm
06:02 50.2 °F /  10.1 °C 49.1 °F /  9.5 °C 30.2 in /  1020.9 hPa Calm   6 mph /  9.7 km/h 96 % 0 in /  0.0 mm
06:12 50.2 °F /  10.1 °C 49.1 °F /  9.5 °C 30.2 in /  1020.9 hPa Calm   3 mph /  4.8 km/h 96 % 0 in /  0.0 mm
06:17 50.2 °F /  10.1 °C 49.1 °F /  9.5 °C 30.2 in /  1020.9 hPa Calm   3 mph /  4.8 km/h 96 % 0 in /  0.0 mm
06:22 50.2 °F /  10.1 °C 49.1 °F /  9.5 °C 30.2 in /  1021.2 hPa SSW 1 mph /  1.6 km/h 3 mph /  4.8 km/h 96 % 0 in /  0.0 mm
06:32 50.2 °F /  10.1 °C 49.1 °F /  9.5 °C 30.2 in /  1021.2 hPa WSW 1 mph /  1.6 km/h 3 mph /  4.8 km/h 96 % 0 in /  0.0 mm
06:37 50.2 °F /  10.1 °C 49.1 °F /  9.5 °C 30.2 in /  1021.2 hPa Calm   3 mph /  4.8 km/h 96 % 0 in /  0.0 mm
06:42 50.4 °F /  10.2 °C 49.3 °F /  9.6 °C 30.2 in /  1021.2 hPa WSW 4 mph /  6.4 km/h 4 mph /  6.4 km/h 96 % 0 in /  0.0 mm
06:47 50.4 °F /  10.2 °C 49.3 °F /  9.6 °C 30.2 in /  1020.9 hPa WSW 1 mph /  1.6 km/h 3 mph /  4.8 km/h 96 % 0 in /  0.0 mm
06:57 50.4 °F /  10.2 °C 49.3 °F /  9.6 °C 30.2 in /  1021.2 hPa SW 1 mph /  1.6 km/h 4 mph /  6.4 km/h 96 % 0 in /  0.0 mm
07:02 50.4 °F /  10.2 °C 49.3 °F /  9.6 °C 30.2 in /  1021.2 hPa WSW 1 mph /  1.6 km/h 4 mph /  6.4 km/h 96 % 0 in /  0.0 mm
07:12 50.4 °F /  10.2 °C 49.3 °F /  9.6 °C 30.2 in /  1021.2 hPa SW 1 mph /  1.6 km/h 3 mph /  4.8 km/h 96 % 0 in /  0.0 mm
07:17 50.5 °F /  10.3 °C 49.5 °F /  9.7 °C 30.2 in /  1021.2 hPa West 3 mph /  4.8 km/h 3 mph /  4.8 km/h 96 % 0 in /  0.0 mm
07:22 50.5 °F /  10.3 °C 49.5 °F /  9.7 °C 30.2 in /  1020.9 hPa WSW 3 mph /  4.8 km/h 4 mph /  6.4 km/h 96 % 0 in /  0.0 mm
07:32 50.5 °F /  10.3 °C 49.5 °F /  9.7 °C 30.2 in /  1020.9 hPa WSW 4 mph /  6.4 km/h 5 mph /  8.0 km/h 96 % 0 in /  0.0 mm
07:42 50.5 °F /  10.3 °C 49.5 °F /  9.7 °C 30.2 in /  1021.2 hPa WSW 1 mph /  1.6 km/h 6 mph /  9.7 km/h 96 % 0 in /  0.0 mm
07:47 50.5 °F /  10.3 °C 49.5 °F /  9.7 °C 30.2 in /  1021.2 hPa West 3 mph /  4.8 km/h 6 mph /  9.7 km/h 96 % 0 in /  0.0 mm
07:52 50.7 °F /  10.4 °C 49.6 °F /  9.8 °C 30.2 in /  1021.2 hPa West 2 mph /  3.2 km/h 6 mph /  9.7 km/h 96 % 0 in /  0.0 mm
07:57 50.7 °F /  10.4 °C 49.6 °F /  9.8 °C 30.2 in /  1021.2 hPa West 5 mph /  8.0 km/h 6 mph /  9.7 km/h 96 % 0 in /  0.0 mm
08:12 50.9 °F /  10.5 °C 49.8 °F /  9.9 °C 30.2 in /  1021.2 hPa West 2 mph /  3.2 km/h 6 mph /  9.7 km/h 96 % 0 in /  0.0 mm
08:17 51.1 °F /  10.6 °C 50 °F /  10.0 °C 30.2 in /  1021.2 hPa SW 1 mph /  1.6 km/h 6 mph /  9.7 km/h 96 % 0 in /  0.0 mm
08:22 51.1 °F /  10.6 °C 50 °F /  10.0 °C 30.2 in /  1021.2 hPa West 1 mph /  1.6 km/h 6 mph /  9.7 km/h 96 % 0 in /  0.0 mm
08:32 51.3 °F /  10.7 °C 50.2 °F /  10.1 °C 30.2 in /  1021.2 hPa WSW 2 mph /  3.2 km/h 4 mph /  6.4 km/h 96 % 0 in /  0.0 mm
08:42 51.4 °F /  10.8 °C 50.4 °F /  10.2 °C 30.2 in /  1021.2 hPa WSW 2 mph /  3.2 km/h 6 mph /  9.7 km/h 96 % 0 in /  0.0 mm
08:52 51.6 °F /  10.9 °C 50.5 °F /  10.3 °C 30.2 in /  1021.6 hPa WSW 3 mph /  4.8 km/h 6 mph /  9.7 km/h 96 % 0 in /  0.0 mm
08:57 51.6 °F /  10.9 °C 50.5 °F /  10.3 °C 30.2 in /  1021.6 hPa West 3 mph /  4.8 km/h 6 mph /  9.7 km/h 96 % 0 in /  0.0 mm
09:12 52 °F /  11.1 °C 50.9 °F /  10.5 °C 30.2 in /  1021.6 hPa WNW 2 mph /  3.2 km/h 6 mph /  9.7 km/h 96 % 0 in /  0.0 mm
09:17 52 °F /  11.1 °C 50.9 °F /  10.5 °C 30.2 in /  1021.6 hPa Calm   6 mph /  9.7 km/h 96 % 0 in /  0.0 mm
09:22 52.2 °F /  11.2 °C 51.1 °F /  10.6 °C 30.2 in /  1021.6 hPa Calm   3 mph /  4.8 km/h 96 % 0 in /  0.0 mm
09:32 52.3 °F /  11.3 °C 51.3 °F /  10.7 °C 30.2 in /  1021.6 hPa Calm   4 mph /  6.4 km/h 96 % 0 in /  0.0 mm
09:37 52.5 °F /  11.4 °C 51.4 °F /  10.8 °C 30.2 in /  1021.6 hPa NNW 1 mph /  1.6 km/h 5 mph /  8.0 km/h 96 % 0 in /  0.0 mm
09:42 52.5 °F /  11.4 °C 51.4 °F /  10.8 °C 30.2 in /  1021.9 hPa WNW 4 mph /  6.4 km/h 6 mph /  9.7 km/h 96 % 0 in /  0.0 mm
09:52 53.1 °F /  11.7 °C 52 °F /  11.1 °C 30.2 in /  1021.9 hPa WNW 1 mph /  1.6 km/h 7 mph /  11.3 km/h 96 % 0 in /  0.0 mm
10:02 53.2 °F /  11.8 °C 52.2 °F /  11.2 °C 30.2 in /  1021.9 hPa West 2 mph /  3.2 km/h 7 mph /  11.3 km/h 96 % 0 in /  0.0 mm
10:12 53.6 °F /  12.0 °C 52.5 °F /  11.4 °C 30.2 in /  1021.9 hPa West 4 mph /  6.4 km/h 6 mph /  9.7 km/h 96 % 0 in /  0.0 mm
10:17 54 °F /  12.2 °C 52.9 °F /  11.6 °C 30.2 in /  1021.9 hPa WNW 9 mph /  14.5 km/h 9 mph /  14.5 km/h 96 % 0 in /  0.0 mm
10:22 54.1 °F /  12.3 °C 52.7 °F /  11.5 °C 30.2 in /  1021.9 hPa West 2 mph /  3.2 km/h 10 mph /  16.1 km/h 95 % 0 in /  0.0 mm
10:32 54.9 °F /  12.7 °C 52.5 °F /  11.4 °C 30.2 in /  1021.9 hPa West 5 mph /  8.0 km/h 10 mph /  16.1 km/h 92 % 0 in /  0.0 mm
10:42 55.8 °F /  13.2 °C 53.2 °F /  11.8 °C 30.2 in /  1021.9 hPa NW 4 mph /  6.4 km/h 8 mph /  12.9 km/h 91 % 0 in /  0.0 mm
10:52 55.2 °F /  12.9 °C 52 °F /  11.1 °C 30.2 in /  1022.2 hPa West 3 mph /  4.8 km/h 8 mph /  12.9 km/h 89 % 0 in /  0.0 mm
11:02 55.8 °F /  13.2 °C 52.9 °F /  11.6 °C 30.2 in /  1022.2 hPa WSW 2 mph /  3.2 km/h 8 mph /  12.9 km/h 90 % 0 in /  0.0 mm
11:12 55.8 °F /  13.2 °C 52 °F /  11.1 °C 30.2 in /  1021.9 hPa WNW 4 mph /  6.4 km/h 7 mph /  11.3 km/h 87 % 0 in /  0.0 mm
11:17 55.9 °F /  13.3 °C 52.5 °F /  11.4 °C 30.2 in /  1022.2 hPa WNW 1 mph /  1.6 km/h 7 mph /  11.3 km/h 88 % 0 in /  0.0 mm
11:22 55.9 °F /  13.3 °C 52.5 °F /  11.4 °C 30.2 in /  1022.2 hPa NW 6 mph /  9.7 km/h 6 mph /  9.7 km/h 88 % 0 in /  0.0 mm
11:27 55.9 °F /  13.3 °C 52.5 °F /  11.4 °C 30.2 in /  1022.2 hPa WNW 2 mph /  3.2 km/h 7 mph /  11.3 km/h 88 % 0 in /  0.0 mm
11:32 55.9 °F /  13.3 °C 52.5 °F /  11.4 °C 30.2 in /  1022.2 hPa Calm   7 mph /  11.3 km/h 88 % 0 in /  0.0 mm
11:37 55.8 °F /  13.2 °C 52.3 °F /  11.3 °C 30.2 in /  1022.2 hPa Calm   7 mph /  11.3 km/h 88 % 0 in /  0.0 mm
11:42 56.3 °F /  13.5 °C 52.9 °F /  11.6 °C 30.2 in /  1022.2 hPa Calm   6 mph /  9.7 km/h 88 % 0 in /  0.0 mm
11:52 56.8 °F /  13.8 °C 52.7 °F /  11.5 °C 30.2 in /  1022.2 hPa WNW 3 mph /  4.8 km/h 9 mph /  14.5 km/h 86 % 0 in /  0.0 mm
11:57 56.8 °F /  13.8 °C 52.7 °F /  11.5 °C 30.2 in /  1022.2 hPa NNE 2 mph /  3.2 km/h 9 mph /  14.5 km/h 86 % 0 in /  0.0 mm
12:12 57.6 °F /  14.2 °C 52.7 °F /  11.5 °C 30.2 in /  1022.2 hPa NNW 1 mph /  1.6 km/h 8 mph /  12.9 km/h 84 % 0 in /  0.0 mm
12:17 57.9 °F /  14.4 °C 52.7 °F /  11.5 °C 30.2 in /  1022.2 hPa WNW 2 mph /  3.2 km/h 8 mph /  12.9 km/h 83 % 0 in /  0.0 mm
12:22 57.9 °F /  14.4 °C 52.5 °F /  11.4 °C 30.2 in /  1022.2 hPa North 3 mph /  4.8 km/h 8 mph /  12.9 km/h 82 % 0 in /  0.0 mm
12:32 57.7 °F /  14.3 °C 52.7 °F /  11.5 °C 30.2 in /  1022.2 hPa Calm   8 mph /  12.9 km/h 83 % 0 in /  0.0 mm
12:42 57.7 °F /  14.3 °C 52.9 °F /  11.6 °C 30.2 in /  1022.2 hPa WNW 1 mph /  1.6 km/h 6 mph /  9.7 km/h 84 % 0 in /  0.0 mm
12:47 57.7 °F /  14.3 °C 52.7 °F /  11.5 °C 30.2 in /  1022.2 hPa NW 5 mph /  8.0 km/h 6 mph /  9.7 km/h 83 % 0 in /  0.0 mm
12:57 57.7 °F /  14.3 °C 52.7 °F /  11.5 °C 30.2 in /  1022.2 hPa WNW 2 mph /  3.2 km/h 6 mph /  9.7 km/h 83 % 0 in /  0.0 mm
13:02 57.9 °F /  14.4 °C 52.7 °F /  11.5 °C 30.2 in /  1022.2 hPa WNW 3 mph /  4.8 km/h 6 mph /  9.7 km/h 83 % 0 in /  0.0 mm
13:07 57.7 °F /  14.3 °C 52.7 °F /  11.5 °C 30.2 in /  1022.2 hPa NW 2 mph /  3.2 km/h 6 mph /  9.7 km/h 83 % 0 in /  0.0 mm
13:12 57.7 °F /  14.3 °C 52.7 °F /  11.5 °C 30.2 in /  1022.2 hPa WNW 3 mph /  4.8 km/h 6 mph /  9.7 km/h 83 % 0 in /  0.0 mm
13:17 57.9 °F /  14.4 °C 52.7 °F /  11.5 °C 30.2 in /  1022.2 hPa WNW 6 mph /  9.7 km/h 6 mph /  9.7 km/h 83 % 0 in /  0.0 mm
13:22 57.9 °F /  14.4 °C 53.1 °F /  11.7 °C 30.2 in /  1022.2 hPa WSW 2 mph /  3.2 km/h 6 mph /  9.7 km/h 84 % 0 in /  0.0 mm
13:32 58.6 °F /  14.8 °C 54.5 °F /  12.5 °C 30.2 in /  1022.2 hPa SSW 2 mph /  3.2 km/h 6 mph /  9.7 km/h 86 % 0 in /  0.0 mm
13:37 58.3 °F /  14.6 °C 54.5 °F /  12.5 °C 30.2 in /  1022.2 hPa SSW 7 mph /  11.3 km/h 8 mph /  12.9 km/h 87 % 0 in /  0.0 mm
13:42 57.9 °F /  14.4 °C 54.3 °F /  12.4 °C 30.2 in /  1022.2 hPa WSW 6 mph /  9.7 km/h 9 mph /  14.5 km/h 88 % 0 in /  0.0 mm
13:47 57.7 °F /  14.3 °C 54.9 °F /  12.7 °C 30.2 in /  1022.2 hPa SW 5 mph /  8.0 km/h 9 mph /  14.5 km/h 90 % 0 in /  0.0 mm
13:52 57.4 °F /  14.1 °C 54.1 °F /  12.3 °C 30.2 in /  1022.2 hPa SW 2 mph /  3.2 km/h 8 mph /  12.9 km/h 89 % 0 in /  0.0 mm
13:57 57.4 °F /  14.1 °C 54.5 °F /  12.5 °C 30.2 in /  1022.2 hPa WSW 5 mph /  8.0 km/h 8 mph /  12.9 km/h 90 % 0 in /  0.0 mm
14:02 57.7 °F /  14.3 °C 54.9 °F /  12.7 °C 30.2 in /  1022.2 hPa SSW 4 mph /  6.4 km/h 8 mph /  12.9 km/h 90 % 0 in /  0.0 mm
14:07 58.3 °F /  14.6 °C 55 °F /  12.8 °C 30.2 in /  1022.2 hPa SW 5 mph /  8.0 km/h 8 mph /  12.9 km/h 89 % 0 in /  0.0 mm
14:17 59.2 °F /  15.1 °C 55.6 °F /  13.1 °C 30.2 in /  1021.9 hPa SW 6 mph /  9.7 km/h 8 mph /  12.9 km/h 88 % 0 in /  0.0 mm
14:22 58.8 °F /  14.9 °C 55 °F /  12.8 °C 30.2 in /  1021.9 hPa West 6 mph /  9.7 km/h 9 mph /  14.5 km/h 87 % 0 in /  0.0 mm
14:27 58.8 °F /  14.9 °C 55.2 °F /  12.9 °C 30.2 in /  1021.9 hPa WSW 2 mph /  3.2 km/h 9 mph /  14.5 km/h 88 % 0 in /  0.0 mm
14:32 58.8 °F /  14.9 °C 55.2 °F /  12.9 °C 30.2 in /  1021.9 hPa WSW 2 mph /  3.2 km/h 9 mph /  14.5 km/h 88 % 0 in /  0.0 mm
14:37 58.6 °F /  14.8 °C 54.9 °F /  12.7 °C 30.2 in /  1021.9 hPa SW 3 mph /  4.8 km/h 9 mph /  14.5 km/h 87 % 0 in /  0.0 mm
14:42 58.6 °F /  14.8 °C 54.9 °F /  12.7 °C 30.2 in /  1021.6 hPa SW 2 mph /  3.2 km/h 6 mph /  9.7 km/h 87 % 0 in /  0.0 mm
14:47 58.8 °F /  14.9 °C 55 °F /  12.8 °C 30.2 in /  1021.6 hPa WSW 4 mph /  6.4 km/h 7 mph /  11.3 km/h 87 % 0 in /  0.0 mm
14:52 58.8 °F /  14.9 °C 54.3 °F /  12.4 °C 30.2 in /  1021.6 hPa SW 5 mph /  8.0 km/h 7 mph /  11.3 km/h 85 % 0 in /  0.0 mm
14:57 58.8 °F /  14.9 °C 54.7 °F /  12.6 °C 30.2 in /  1021.6 hPa SW 5 mph /  8.0 km/h 7 mph /  11.3 km/h 86 % 0 in /  0.0 mm
15:02 58.8 °F /  14.9 °C 55 °F /  12.8 °C 30.2 in /  1021.6 hPa SSW 5 mph /  8.0 km/h 8 mph /  12.9 km/h 87 % 0 in /  0.0 mm
15:07 59 °F /  15.0 °C 54.9 °F /  12.7 °C 30.2 in /  1021.6 hPa SW 4 mph /  6.4 km/h 8 mph /  12.9 km/h 86 % 0 in /  0.0 mm
15:12 59 °F /  15.0 °C 55.2 °F /  12.9 °C 30.2 in /  1021.6 hPa SW 4 mph /  6.4 km/h 9 mph /  14.5 km/h 87 % 0 in /  0.0 mm
15:17 58.8 °F /  14.9 °C 55 °F /  12.8 °C 30.2 in /  1021.6 hPa West 5 mph /  8.0 km/h 9 mph /  14.5 km/h 87 % 0 in /  0.0 mm
15:22 58.6 °F /  14.8 °C 54.9 °F /  12.7 °C 30.2 in /  1021.6 hPa SSW 7 mph /  11.3 km/h 9 mph /  14.5 km/h 87 % 0 in /  0.0 mm
15:27 58.6 °F /  14.8 °C 54.9 °F /  12.7 °C 30.2 in /  1021.6 hPa WSW 4 mph /  6.4 km/h 8 mph /  12.9 km/h 87 % 0 in /  0.0 mm
15:32 58.8 °F /  14.9 °C 55 °F /  12.8 °C 30.2 in /  1021.6 hPa SW 5 mph /  8.0 km/h 8 mph /  12.9 km/h 87 % 0 in /  0.0 mm
15:37 59.4 °F /  15.2 °C 55.8 °F /  13.2 °C 30.2 in /  1021.6 hPa WSW 6 mph /  9.7 km/h 8 mph /  12.9 km/h 88 % 0 in /  0.0 mm
15:42 59.4 °F /  15.2 °C 55.2 °F /  12.9 °C 30.2 in /  1021.6 hPa SW 5 mph /  8.0 km/h 10 mph /  16.1 km/h 86 % 0 in /  0.0 mm
15:47 59.2 °F /  15.1 °C 55 °F /  12.8 °C 30.2 in /  1021.6 hPa WSW 5 mph /  8.0 km/h 10 mph /  16.1 km/h 86 % 0 in /  0.0 mm
15:52 59.2 °F /  15.1 °C 55 °F /  12.8 °C 30.2 in /  1021.6 hPa SW 5 mph /  8.0 km/h 10 mph /  16.1 km/h 86 % 0 in /  0.0 mm
15:57 59 °F /  15.0 °C 55.2 °F /  12.9 °C 30.2 in /  1021.6 hPa SW 4 mph /  6.4 km/h 9 mph /  14.5 km/h 87 % 0 in /  0.0 mm
16:02 59.2 °F /  15.1 °C 55.4 °F /  13.0 °C 30.2 in /  1021.6 hPa SW 4 mph /  6.4 km/h 8 mph /  12.9 km/h 87 % 0 in /  0.0 mm
16:12 59.4 °F /  15.2 °C 55.8 °F /  13.2 °C 30.2 in /  1021.6 hPa SSW 3 mph /  4.8 km/h 10 mph /  16.1 km/h 88 % 0 in /  0.0 mm
16:17 59.4 °F /  15.2 °C 55.4 °F /  13.0 °C 30.2 in /  1021.6 hPa WSW 4 mph /  6.4 km/h 10 mph /  16.1 km/h 87 % 0 in /  0.0 mm
16:22 59.2 °F /  15.1 °C 55.4 °F /  13.0 °C 30.2 in /  1021.6 hPa WSW 5 mph /  8.0 km/h 9 mph /  14.5 km/h 87 % 0 in /  0.0 mm
16:32 58.8 °F /  14.9 °C 55 °F /  12.8 °C 30.2 in /  1021.6 hPa SW 2 mph /  3.2 km/h 7 mph /  11.3 km/h 87 % 0 in /  0.0 mm
16:37 58.8 °F /  14.9 °C 55 °F /  12.8 °C 30.2 in /  1021.6 hPa SSW 2 mph /  3.2 km/h 7 mph /  11.3 km/h 87 % 0 in /  0.0 mm
16:42 58.8 °F /  14.9 °C 55 °F /  12.8 °C 30.2 in /  1021.6 hPa SW 1 mph /  1.6 km/h 7 mph /  11.3 km/h 87 % 0 in /  0.0 mm
16:47 58.8 °F /  14.9 °C 55.2 °F /  12.9 °C 30.2 in /  1021.6 hPa SSW 1 mph /  1.6 km/h 7 mph /  11.3 km/h 88 % 0 in /  0.0 mm
16:52 58.8 °F /  14.9 °C 55 °F /  12.8 °C 30.2 in /  1021.6 hPa Calm   4 mph /  6.4 km/h 87 % 0 in /  0.0 mm
16:57 58.8 °F /  14.9 °C 55 °F /  12.8 °C 30.2 in /  1021.6 hPa Calm   2 mph /  3.2 km/h 87 % 0 in /  0.0 mm
17:02 58.8 °F /  14.9 °C 55 °F /  12.8 °C 30.2 in /  1021.6 hPa Calm   2 mph /  3.2 km/h 87 % 0 in /  0.0 mm
17:07 58.8 °F /  14.9 °C 55 °F /  12.8 °C 30.2 in /  1021.6 hPa Calm   2 mph /  3.2 km/h 87 % 0 in /  0.0 mm
17:12 59 °F /  15.0 °C 55.2 °F /  12.9 °C 30.2 in /  1021.6 hPa WSW 2 mph /  3.2 km/h 2 mph /  3.2 km/h 87 % 0 in /  0.0 mm
17:17 59 °F /  15.0 °C 55.4 °F /  13.0 °C 30.2 in /  1021.6 hPa Calm   2 mph /  3.2 km/h 88 % 0 in /  0.0 mm
17:22 59 °F /  15.0 °C 55.2 °F /  12.9 °C 30.2 in /  1021.6 hPa West 1 mph /  1.6 km/h 3 mph /  4.8 km/h 87 % 0 in /  0.0 mm
17:32 58.8 °F /  14.9 °C 55.2 °F /  12.9 °C 30.2 in /  1021.6 hPa Calm   4 mph /  6.4 km/h 88 % 0 in /  0.0 mm
17:37 58.8 °F /  14.9 °C 55.2 °F /  12.9 °C 30.2 in /  1021.6 hPa SW 1 mph /  1.6 km/h 4 mph /  6.4 km/h 88 % 0 in /  0.0 mm
17:42 58.8 °F /  14.9 °C 55 °F /  12.8 °C 30.2 in /  1021.6 hPa WSW 2 mph /  3.2 km/h 4 mph /  6.4 km/h 87 % 0 in /  0.0 mm
17:47 58.8 °F /  14.9 °C 55 °F /  12.8 °C 30.2 in /  1021.6 hPa SSW 1 mph /  1.6 km/h 4 mph /  6.4 km/h 87 % 0 in /  0.0 mm
17:52 58.8 °F /  14.9 °C 55 °F /  12.8 °C 30.2 in /  1021.6 hPa WSW 1 mph /  1.6 km/h 4 mph /  6.4 km/h 87 % 0 in /  0.0 mm
17:57 58.8 °F /  14.9 °C 55 °F /  12.8 °C 30.2 in /  1021.6 hPa Calm   2 mph /  3.2 km/h 87 % 0 in /  0.0 mm
18:02 58.8 °F /  14.9 °C 55 °F /  12.8 °C 30.2 in /  1021.6 hPa Calm   2 mph /  3.2 km/h 87 % 0 in /  0.0 mm
18:07 58.8 °F /  14.9 °C 55 °F /  12.8 °C 30.2 in /  1021.6 hPa Calm   2 mph /  3.2 km/h 87 % 0 in /  0.0 mm
18:12 58.8 °F /  14.9 °C 55 °F /  12.8 °C 30.2 in /  1021.6 hPa WNW 1 mph /  1.6 km/h 1 mph /  1.6 km/h 87 % 0 in /  0.0 mm
18:17 59.2 °F /  15.1 °C 55.6 °F /  13.1 °C 30.2 in /  1021.6 hPa Calm   1 mph /  1.6 km/h 88 % 0 in /  0.0 mm
18:22 59.5 °F /  15.3 °C 55.9 °F /  13.3 °C 30.2 in /  1021.6 hPa WNW 1 mph /  1.6 km/h 1 mph /  1.6 km/h 88 % 0 in /  0.0 mm
18:32 60.4 °F /  15.8 °C 55.9 °F /  13.3 °C 30.2 in /  1021.6 hPa NW 2 mph /  3.2 km/h 2 mph /  3.2 km/h 85 % 0 in /  0.0 mm
18:47 60.3 °F /  15.7 °C 55.8 °F /  13.2 °C 30.2 in /  1021.6 hPa Calm   3 mph /  4.8 km/h 85 % 0 in /  0.0 mm
18:52 60.3 °F /  15.7 °C 55.8 °F /  13.2 °C 30.2 in /  1021.6 hPa Calm   2 mph /  3.2 km/h 85 % 0 in /  0.0 mm
18:57 59.9 °F /  15.5 °C 55.4 °F /  13.0 °C 30.2 in /  1021.6 hPa Calm   1 mph /  1.6 km/h 85 % 0 in /  0.0 mm
19:02 59.7 °F /  15.4 °C 55.6 °F /  13.1 °C 30.2 in /  1021.9 hPa Calm   1 mph /  1.6 km/h 86 % 0 in /  0.0 mm
19:07 59.5 °F /  15.3 °C 55.6 °F /  13.1 °C 30.2 in /  1021.9 hPa Calm   1 mph /  1.6 km/h 87 % 0 in /  0.0 mm
19:12 59.4 °F /  15.2 °C 55.4 °F /  13.0 °C 30.2 in /  1021.9 hPa Calm     87 % 0 in /  0.0 mm
19:17 59.2 °F /  15.1 °C 55.6 °F /  13.1 °C 30.2 in /  1021.9 hPa Calm     88 % 0 in /  0.0 mm
19:22 59 °F /  15.0 °C 55.4 °F /  13.0 °C 30.2 in /  1021.9 hPa Calm     88 % 0 in /  0.0 mm
19:27 58.8 °F /  14.9 °C 55.2 °F /  12.9 °C 30.2 in /  1021.9 hPa Calm     88 % 0 in /  0.0 mm
19:32 58.8 °F /  14.9 °C 55.6 °F /  13.1 °C 30.2 in /  1021.9 hPa Calm     89 % 0 in /  0.0 mm
19:37 58.6 °F /  14.8 °C 55.4 °F /  13.0 °C 30.2 in /  1021.9 hPa Calm     89 % 0 in /  0.0 mm
19:52 57.9 °F /  14.4 °C 55 °F /  12.8 °C 30.2 in /  1022.2 hPa Calm     90 % 0 in /  0.0 mm
19:57 57.7 °F /  14.3 °C 54.9 °F /  12.7 °C 30.2 in /  1022.2 hPa Calm     90 % 0 in /  0.0 mm
20:02 57.6 °F /  14.2 °C 55 °F /  12.8 °C 30.2 in /  1022.2 hPa Calm     91 % 0 in /  0.0 mm
20:07 57.4 °F /  14.1 °C 54.9 °F /  12.7 °C 30.2 in /  1022.2 hPa Calm   1 mph /  1.6 km/h 91 % 0 in /  0.0 mm
20:12 57.2 °F /  14.0 °C 54.7 °F /  12.6 °C 30.2 in /  1022.2 hPa Calm   1 mph /  1.6 km/h 91 % 0 in /  0.0 mm
20:17 57 °F /  13.9 °C 54.5 °F /  12.5 °C 30.2 in /  1022.2 hPa NNW 1 mph /  1.6 km/h 1 mph /  1.6 km/h 91 % 0 in /  0.0 mm
20:22 57 °F /  13.9 °C 54.5 °F /  12.5 °C 30.2 in /  1022.2 hPa Calm   1 mph /  1.6 km/h 91 % 0 in /  0.0 mm
20:27 57.2 °F /  14.0 °C 54.7 °F /  12.6 °C 30.2 in /  1022.2 hPa Calm   1 mph /  1.6 km/h 91 % 0 in /  0.0 mm
20:32 57.2 °F /  14.0 °C 54.7 °F /  12.6 °C 30.2 in /  1022.2 hPa Calm   1 mph /  1.6 km/h 91 % 0 in /  0.0 mm
20:37 57.2 °F /  14.0 °C 54.7 °F /  12.6 °C 30.2 in /  1022.2 hPa Calm   1 mph /  1.6 km/h 91 % 0 in /  0.0 mm
20:42 57 °F /  13.9 °C 54.5 °F /  12.5 °C 30.2 in /  1022.2 hPa Calm   1 mph /  1.6 km/h 91 % 0 in /  0.0 mm
20:52 56.7 °F /  13.7 °C 54.1 °F /  12.3 °C 30.2 in /  1022.6 hPa Calm     91 % 0 in /  0.0 mm
20:57 56.7 °F /  13.7 °C 54.1 °F /  12.3 °C 30.2 in /  1022.2 hPa Calm     91 % 0 in /  0.0 mm
21:02 56.7 °F /  13.7 °C 54.1 °F /  12.3 °C 30.2 in /  1022.6 hPa Calm     91 % 0 in /  0.0 mm
21:12 56.5 °F /  13.6 °C 54.1 °F /  12.3 °C 30.2 in /  1022.6 hPa Calm   1 mph /  1.6 km/h 92 % 0 in /  0.0 mm
21:17 56.5 °F /  13.6 °C 54.1 °F /  12.3 °C 30.2 in /  1022.6 hPa Calm   1 mph /  1.6 km/h 92 % 0 in /  0.0 mm
21:22 56.3 °F /  13.5 °C 54 °F /  12.2 °C 30.2 in /  1022.6 hPa Calm   1 mph /  1.6 km/h 92 % 0 in /  0.0 mm
21:27 56.3 °F /  13.5 °C 54 °F /  12.2 °C 30.2 in /  1022.6 hPa NNW 1 mph /  1.6 km/h 2 mph /  3.2 km/h 92 % 0 in /  0.0 mm
21:37 56.1 °F /  13.4 °C 54.1 °F /  12.3 °C 30.2 in /  1022.6 hPa Calm   2 mph /  3.2 km/h 93 % 0 in /  0.0 mm
21:42 56.1 °F /  13.4 °C 54.1 °F /  12.3 °C 30.2 in /  1022.6 hPa Calm   1 mph /  1.6 km/h 93 % 0 in /  0.0 mm
21:47 55.9 °F /  13.3 °C 54 °F /  12.2 °C 30.2 in /  1022.6 hPa Calm   1 mph /  1.6 km/h 93 % 0 in /  0.0 mm
21:52 55.9 °F /  13.3 °C 54 °F /  12.2 °C 30.2 in /  1022.6 hPa Calm   1 mph /  1.6 km/h 93 % 0 in /  0.0 mm
21:57 55.9 °F /  13.3 °C 54 °F /  12.2 °C 30.2 in /  1022.6 hPa Calm   1 mph /  1.6 km/h 93 % 0 in /  0.0 mm
22:02 55.8 °F /  13.2 °C 53.8 °F /  12.1 °C 30.2 in /  1022.6 hPa Calm   1 mph /  1.6 km/h 93 % 0 in /  0.0 mm
22:07 55.8 °F /  13.2 °C 53.4 °F /  11.9 °C 30.2 in /  1022.6 hPa Calm   1 mph /  1.6 km/h 92 % 0 in /  0.0 mm
22:12 55.6 °F /  13.1 °C 53.2 °F /  11.8 °C 30.2 in /  1022.6 hPa Calm   1 mph /  1.6 km/h 92 % 0 in /  0.0 mm
22:17 55.6 °F /  13.1 °C 53.6 °F /  12.0 °C 30.2 in /  1022.6 hPa Calm   1 mph /  1.6 km/h 93 % 0 in /  0.0 mm
22:22 55.4 °F /  13.0 °C 53.4 °F /  11.9 °C 30.2 in /  1022.9 hPa Calm   1 mph /  1.6 km/h 93 % 0 in /  0.0 mm
22:27 55.2 °F /  12.9 °C 53.2 °F /  11.8 °C 30.2 in /  1022.6 hPa Calm     93 % 0 in /  0.0 mm
22:32 55.2 °F /  12.9 °C 53.2 °F /  11.8 °C 30.2 in /  1022.9 hPa Calm     93 % 0 in /  0.0 mm
22:37 55 °F /  12.8 °C 53.1 °F /  11.7 °C 30.2 in /  1022.9 hPa Calm     93 % 0 in /  0.0 mm
22:42 55 °F /  12.8 °C 53.1 °F /  11.7 °C 30.2 in /  1022.6 hPa Calm     93 % 0 in /  0.0 mm
22:47 54.9 °F /  12.7 °C 52.9 °F /  11.6 °C 30.2 in /  1022.9 hPa Calm     93 % 0 in /  0.0 mm
22:52 54.7 °F /  12.6 °C 52.7 °F /  11.5 °C 30.2 in /  1022.9 hPa Calm     93 % 0 in /  0.0 mm
22:57 54.5 °F /  12.5 °C 52.5 °F /  11.4 °C 30.2 in /  1022.6 hPa Calm     93 % 0 in /  0.0 mm
23:02 54.3 °F /  12.4 °C 52.3 °F /  11.3 °C 30.2 in /  1022.6 hPa Calm     93 % 0 in /  0.0 mm
23:07 54.1 °F /  12.3 °C 52.5 °F /  11.4 °C 30.2 in /  1022.6 hPa Calm     94 % 0 in /  0.0 mm
23:12 53.8 °F /  12.1 °C 52.2 °F /  11.2 °C 30.2 in /  1022.6 hPa Calm     94 % 0 in /  0.0 mm
23:17 53.4 °F /  11.9 °C 51.8 °F /  11.0 °C 30.2 in /  1022.6 hPa Calm     94 % 0 in /  0.0 mm
23:22 53.2 °F /  11.8 °C 51.6 °F /  10.9 °C 30.2 in /  1022.9 hPa Calm     94 % 0 in /  0.0 mm
23:27 53.2 °F /  11.8 °C 51.8 °F /  11.0 °C 30.2 in /  1022.9 hPa Calm     95 % 0 in /  0.0 mm
23:32 53.2 °F /  11.8 °C 51.8 °F /  11.0 °C 30.2 in /  1022.9 hPa Calm   1 mph /  1.6 km/h 95 % 0 in /  0.0 mm
23:37 53.2 °F /  11.8 °C 51.8 °F /  11.0 °C 30.2 in /  1022.9 hPa Calm   1 mph /  1.6 km/h 95 % 0 in /  0.0 mm
23:42 53.1 °F /  11.7 °C 51.6 °F /  10.9 °C 30.2 in /  1022.9 hPa Calm   2 mph /  3.2 km/h 95 % 0 in /  0.0 mm
23:52 53.1 °F /  11.7 °C 51.6 °F /  10.9 °C 30.2 in /  1022.9 hPa Calm   2 mph /  3.2 km/h 95 % 0 in /  0.0 mm
23:57 52.9 °F /  11.6 °C 51.4 °F /  10.8 °C 30.2 in /  1022.9 hPa Calm   2 mph /  3.2 km/h 95 % 0 in /  0.0 mm
Meteo18
Compliments of Weather Underground - 4 mb

Script developed by  Jim McMurry - jmcmurry@mwt.net Adapted for the template by  Wim van der Kuil - Leuven-Template.eu

You find our weather info also at:

European Weather Network

Weather Underground

Equipment we use:

Weather-station
Davis Vue

Weather-program
Meteohub

Weather-server
Raspberry PI 2 B+

Provider
1 and 1

Davis Vue

Meteohub

Raspberry PI 2 B+

1 and 1